createdAt,value
2023-05-04T00:00:16.389Z,8.77
2023-05-04T00:00:48.677Z,8.77
2023-05-04T00:01:17.178Z,8.77
2023-05-04T00:01:47.456Z,8.77
2023-05-04T00:02:19.178Z,8.77
2023-05-04T00:02:49.640Z,8.77
2023-05-04T00:03:21.319Z,8.61
2023-05-04T00:03:51.587Z,8.61
2023-05-04T00:04:23.468Z,8.61
2023-05-04T00:04:54.396Z,8.38
2023-05-04T00:05:25.705Z,8.38
2023-05-04T00:05:56.476Z,8.27
2023-05-04T00:06:27.600Z,8.27
2023-05-04T00:06:57.561Z,7.49
2023-05-04T00:07:29.860Z,8.22
2023-05-04T00:07:59.598Z,8.22
2023-05-04T00:08:31.177Z,8.22
2023-05-04T00:09:01.630Z,8.22
2023-05-04T00:09:33.519Z,8.22
2023-05-04T00:10:04.292Z,8.11
2023-05-04T00:10:35.960Z,8.00
2023-05-04T00:11:06.479Z,7.88
2023-05-04T00:11:37.405Z,7.88
2023-05-04T00:12:07.532Z,7.77
2023-05-04T00:12:39.267Z,7.77
2023-05-04T00:13:09.538Z,7.72
2023-05-04T00:13:41.342Z,7.61
2023-05-04T00:14:11.566Z,7.50
2023-05-04T00:14:43.151Z,7.50
2023-05-04T00:15:15.057Z,7.38
2023-05-04T00:15:45.261Z,7.38
2023-05-04T00:16:16.552Z,7.38
2023-05-04T00:16:47.561Z,7.38
2023-05-04T00:17:17.499Z,7.27
2023-05-04T00:17:49.206Z,7.27
2023-05-04T00:18:20.370Z,7.27
2023-05-04T00:18:51.193Z,7.27
2023-05-04T00:19:21.491Z,7.27
2023-05-04T00:19:53.191Z,7.22
2023-05-04T00:20:23.970Z,7.11
2023-05-04T00:20:55.676Z,7.11
2023-05-04T00:21:26.566Z,7.11
2023-05-04T00:21:57.232Z,7.11
2023-05-04T00:22:27.502Z,7.11
2023-05-04T00:22:59.173Z,7.11
2023-05-04T00:23:29.459Z,7.11
2023-05-04T00:24:01.232Z,7.00
2023-05-04T00:24:31.509Z,7.00
2023-05-04T00:25:03.992Z,7.00
2023-05-04T00:25:33.634Z,7.00
2023-05-04T00:26:05.182Z,6.88
2023-05-04T00:26:36.503Z,6.88
2023-05-04T00:27:07.501Z,6.88
2023-05-04T00:27:37.530Z,6.88
2023-05-04T00:28:09.176Z,6.88
2023-05-04T00:28:39.508Z,6.88
2023-05-04T00:29:11.156Z,6.88
2023-05-04T00:29:41.472Z,6.88
2023-05-04T00:30:15.066Z,6.88
2023-05-04T00:30:43.511Z,6.88
2023-05-04T00:31:15.248Z,6.88
2023-05-04T00:31:46.513Z,6.88
2023-05-04T00:32:16.524Z,6.88
2023-05-04T00:32:48.225Z,6.88
2023-05-04T00:33:18.478Z,6.88
2023-05-04T00:33:50.158Z,7.00
2023-05-04T00:34:20.505Z,7.00
2023-05-04T00:34:52.163Z,7.00
2023-05-04T00:35:23.091Z,7.11
2023-05-04T00:35:54.169Z,7.11
2023-05-04T00:36:24.487Z,7.22
2023-05-04T00:36:57.194Z,7.22
2023-05-04T00:37:26.764Z,7.22
2023-05-04T00:37:58.701Z,7.22
2023-05-04T00:38:28.781Z,7.11
2023-05-04T00:39:00.170Z,7.11
2023-05-04T00:39:30.464Z,7.11
2023-05-04T00:40:02.912Z,7.11
2023-05-04T00:40:37.347Z,7.11
2023-05-04T00:41:04.774Z,7.22
2023-05-04T00:41:34.518Z,7.50
2023-05-04T00:42:07.151Z,7.61
2023-05-04T00:42:36.674Z,7.61
2023-05-04T00:43:08.145Z,7.61
2023-05-04T00:43:38.494Z,7.50
2023-05-04T00:44:10.185Z,7.38
2023-05-04T00:44:40.520Z,7.38
2023-05-04T00:45:13.576Z,7.27
2023-05-04T00:45:42.526Z,7.11
2023-05-04T00:46:14.228Z,7.00
2023-05-04T00:46:44.490Z,7.00
2023-05-04T00:47:17.349Z,6.88
2023-05-04T00:47:46.889Z,6.88
2023-05-04T00:48:18.237Z,6.77
2023-05-04T00:48:48.590Z,6.77
2023-05-04T00:49:20.558Z,6.77
2023-05-04T00:49:50.528Z,6.72
2023-05-04T00:50:22.803Z,6.72
2023-05-04T00:50:52.467Z,6.61
2023-05-04T00:51:24.181Z,6.61
2023-05-04T00:51:54.836Z,6.61
2023-05-04T00:52:27.174Z,6.61
2023-05-04T00:52:56.594Z,6.61
2023-05-04T00:53:28.161Z,6.61
2023-05-04T00:53:58.474Z,6.61
2023-05-04T00:54:30.188Z,6.61
2023-05-04T00:55:01.635Z,6.50
2023-05-04T00:55:32.164Z,6.50
2023-05-04T00:56:02.532Z,6.50
2023-05-04T00:56:34.275Z,6.38
2023-05-04T00:57:04.443Z,6.38
2023-05-04T00:57:37.336Z,6.38
2023-05-04T00:58:06.800Z,6.38
2023-05-04T00:58:37.933Z,6.38
2023-05-04T00:59:09.180Z,6.38
2023-05-04T00:59:39.536Z,6.38
2023-05-04T01:00:12.088Z,6.38
2023-05-04T01:00:48.876Z,6.38
2023-05-04T01:01:13.305Z,6.38
2023-05-04T01:01:43.484Z,6.38
2023-05-04T01:02:15.184Z,6.38
2023-05-04T01:02:46.563Z,6.38
2023-05-04T01:03:17.343Z,6.27
2023-05-04T01:03:47.453Z,6.22
2023-05-04T01:04:19.155Z,6.22
2023-05-04T01:04:49.453Z,6.22
2023-05-04T01:05:21.950Z,6.22
2023-05-04T01:05:51.481Z,6.22
2023-05-04T01:06:23.163Z,6.22
2023-05-04T01:06:53.453Z,6.22
2023-05-04T01:07:25.175Z,6.22
2023-05-04T01:07:56.927Z,6.22
2023-05-04T01:08:27.534Z,6.22
2023-05-04T01:08:57.583Z,6.22
2023-05-04T01:09:29.146Z,6.22
2023-05-04T01:09:59.587Z,6.22
2023-05-04T01:10:31.937Z,6.22
2023-05-04T01:11:01.444Z,6.22
2023-05-04T01:11:33.250Z,6.22
2023-05-04T01:12:04.315Z,6.22
2023-05-04T01:12:37.633Z,6.22
2023-05-04T01:13:06.936Z,6.22
2023-05-04T01:13:36.462Z,6.22
2023-05-04T01:14:08.144Z,6.22
2023-05-04T01:14:38.467Z,6.22
2023-05-04T01:15:10.966Z,6.22
2023-05-04T01:15:40.643Z,6.27
2023-05-04T01:16:12.171Z,6.38
2023-05-04T01:16:42.501Z,6.38
2023-05-04T01:17:14.161Z,6.38
2023-05-04T01:17:44.535Z,6.38
2023-05-04T01:18:17.237Z,6.38
2023-05-04T01:18:47.265Z,6.38
2023-05-04T01:19:18.148Z,6.38
2023-05-04T01:19:48.458Z,6.38
2023-05-04T01:20:20.662Z,6.38
2023-05-04T01:20:50.453Z,6.38
2023-05-04T01:21:22.164Z,6.38
2023-05-04T01:21:52.452Z,6.38
2023-05-04T01:22:24.249Z,6.27
2023-05-04T01:22:54.491Z,6.27
2023-05-04T01:23:27.393Z,6.27
2023-05-04T01:23:56.457Z,6.27
2023-05-04T01:24:28.269Z,6.22
2023-05-04T01:24:58.462Z,6.22
2023-05-04T01:25:30.926Z,6.22
2023-05-04T01:26:00.491Z,6.22
2023-05-04T01:26:32.171Z,6.22
2023-05-04T01:27:02.652Z,6.22
2023-05-04T01:27:34.243Z,6.22
2023-05-04T01:28:04.468Z,6.11
2023-05-04T01:28:37.194Z,6.11
2023-05-04T01:29:06.837Z,6.11
2023-05-04T01:29:38.163Z,6.11
2023-05-04T01:30:10.107Z,6.11
2023-05-04T01:30:40.266Z,6.11
2023-05-04T01:31:10.513Z,6.11
2023-05-04T01:31:41.440Z,6.11
2023-05-04T01:32:12.930Z,6.11
2023-05-04T01:32:44.235Z,6.11
2023-05-04T01:33:14.427Z,6.11
2023-05-04T01:33:47.203Z,6.11
2023-05-04T01:34:16.525Z,6.11
2023-05-04T01:34:48.162Z,6.00
2023-05-04T01:35:18.923Z,6.00
2023-05-04T01:35:50.203Z,6.00
2023-05-04T01:36:20.518Z,6.00
2023-05-04T01:36:52.147Z,6.00
2023-05-04T01:37:22.572Z,6.00
2023-05-04T01:37:54.259Z,6.00
2023-05-04T01:38:24.508Z,6.00
2023-05-04T01:38:57.286Z,6.00
2023-05-04T01:39:27.417Z,6.00
2023-05-04T01:39:58.204Z,6.00
2023-05-04T01:40:37.274Z,6.00
2023-05-04T01:41:00.189Z,6.00
2023-05-04T01:41:30.476Z,5.88
2023-05-04T01:42:02.216Z,5.88
2023-05-04T01:42:32.465Z,5.88
2023-05-04T01:43:04.289Z,5.88
2023-05-04T01:43:34.509Z,5.88
2023-05-04T01:44:07.141Z,5.77
2023-05-04T01:44:36.518Z,5.77
2023-05-04T01:45:09.241Z,5.77
2023-05-04T01:45:38.988Z,5.77
2023-05-04T01:46:10.223Z,5.77
2023-05-04T01:46:40.502Z,5.77
2023-05-04T01:47:12.135Z,5.72
2023-05-04T01:47:42.497Z,5.72
2023-05-04T01:48:14.324Z,5.72
2023-05-04T01:48:44.608Z,5.72
2023-05-04T01:49:17.149Z,5.72
2023-05-04T01:49:47.036Z,5.61
2023-05-04T01:50:18.636Z,5.61
2023-05-04T01:50:48.470Z,5.61
2023-05-04T01:51:20.213Z,5.61
2023-05-04T01:51:50.591Z,5.61
2023-05-04T01:52:22.412Z,5.61
2023-05-04T01:52:52.512Z,5.61
2023-05-04T01:53:24.222Z,5.72
2023-05-04T01:53:54.471Z,5.72
2023-05-04T01:54:27.403Z,5.72
2023-05-04T01:54:56.508Z,5.72
2023-05-04T01:55:27.998Z,5.72
2023-05-04T01:55:59.153Z,5.72
2023-05-04T01:56:29.473Z,5.72
2023-05-04T01:57:01.233Z,5.72
2023-05-04T01:57:31.705Z,5.72
2023-05-04T01:58:03.600Z,5.72
2023-05-04T01:58:33.614Z,5.72
2023-05-04T01:59:05.595Z,5.77
2023-05-04T01:59:36.562Z,5.77
2023-05-04T02:00:08.649Z,5.77
2023-05-04T02:00:41.235Z,5.77
2023-05-04T02:01:09.199Z,5.72
2023-05-04T02:01:39.688Z,5.72
2023-05-04T02:02:11.265Z,5.72
2023-05-04T02:02:41.541Z,5.72
2023-05-04T02:03:13.220Z,5.72
2023-05-04T02:03:43.702Z,5.72
2023-05-04T02:04:15.323Z,5.72
2023-05-04T02:04:46.707Z,5.72
2023-05-04T02:05:18.070Z,5.72
2023-05-04T02:05:48.431Z,5.72
2023-05-04T02:06:19.653Z,5.72
2023-05-04T02:06:49.458Z,5.72
2023-05-04T02:07:21.227Z,5.72
2023-05-04T02:07:51.486Z,5.61
2023-05-04T02:08:23.193Z,5.61
2023-05-04T02:08:53.467Z,5.61
2023-05-04T02:09:25.266Z,5.61
2023-05-04T02:09:56.470Z,5.61
2023-05-04T02:10:28.324Z,5.50
2023-05-04T02:10:57.822Z,5.50
2023-05-04T02:11:29.200Z,5.50
2023-05-04T02:11:59.499Z,5.50
2023-05-04T02:12:31.760Z,5.50
2023-05-04T02:13:01.772Z,5.61
2023-05-04T02:13:33.123Z,5.61
2023-05-04T02:14:03.603Z,5.61
2023-05-04T02:14:37.874Z,5.61
2023-05-04T02:15:07.900Z,5.61
2023-05-04T02:15:36.533Z,5.61
2023-05-04T02:16:08.274Z,5.61
2023-05-04T02:16:38.677Z,5.72
2023-05-04T02:17:10.160Z,5.72
2023-05-04T02:17:40.460Z,5.72
2023-05-04T02:18:12.282Z,5.72
2023-05-04T02:18:42.453Z,5.72
2023-05-04T02:19:14.559Z,5.72
2023-05-04T02:19:44.460Z,5.72
2023-05-04T02:20:17.609Z,5.72
2023-05-04T02:20:47.447Z,5.72
2023-05-04T02:21:18.334Z,5.72
2023-05-04T02:21:48.896Z,5.72
2023-05-04T02:22:23.086Z,5.72
2023-05-04T02:22:50.436Z,5.72
2023-05-04T02:23:21.705Z,5.72
2023-05-04T02:23:53.225Z,5.72
2023-05-04T02:24:23.450Z,5.72
2023-05-04T02:24:55.182Z,5.72
2023-05-04T02:25:26.977Z,5.72
2023-05-04T02:25:58.261Z,5.72
2023-05-04T02:26:27.514Z,5.72
2023-05-04T02:26:59.170Z,5.72
2023-05-04T02:27:29.427Z,5.72
2023-05-04T02:28:01.386Z,5.72
2023-05-04T02:28:31.447Z,5.72
2023-05-04T02:29:04.152Z,5.72
2023-05-04T02:29:33.628Z,5.72
2023-05-04T02:30:06.840Z,5.72
2023-05-04T02:30:36.544Z,5.61
2023-05-04T02:31:07.476Z,5.61
2023-05-04T02:31:37.554Z,5.61
2023-05-04T02:32:09.134Z,5.50
2023-05-04T02:32:39.513Z,5.50
2023-05-04T02:33:11.149Z,5.38
2023-05-04T02:33:41.433Z,5.38
2023-05-04T02:34:13.134Z,5.38
2023-05-04T02:34:43.542Z,5.27
2023-05-04T02:35:17.174Z,5.27
2023-05-04T02:35:46.433Z,5.27
2023-05-04T02:36:17.334Z,5.27
2023-05-04T02:36:47.717Z,5.22
2023-05-04T02:37:19.248Z,5.11
2023-05-04T02:37:49.468Z,5.11
2023-05-04T02:38:22.125Z,5.11
2023-05-04T02:38:51.450Z,5.11
2023-05-04T02:39:23.635Z,5.11
2023-05-04T02:39:53.432Z,5.11
2023-05-04T02:40:25.746Z,5.11
2023-05-04T02:40:56.522Z,5.11
2023-05-04T02:41:27.532Z,5.11
2023-05-04T02:41:57.668Z,5.00
2023-05-04T02:42:29.143Z,5.00
2023-05-04T02:42:59.490Z,5.00
2023-05-04T02:43:31.291Z,5.11
2023-05-04T02:44:01.530Z,5.11
2023-05-04T02:44:33.125Z,5.11
2023-05-04T02:45:04.458Z,5.11
2023-05-04T02:45:35.409Z,5.00
2023-05-04T02:46:06.806Z,5.00
2023-05-04T02:46:37.137Z,5.00
2023-05-04T02:47:07.456Z,5.00
2023-05-04T02:47:39.193Z,4.88
2023-05-04T02:48:09.558Z,4.88
2023-05-04T02:48:41.160Z,4.88
2023-05-04T02:49:11.445Z,4.77
2023-05-04T02:49:43.245Z,4.77
2023-05-04T02:50:14.466Z,4.77
2023-05-04T02:50:45.193Z,4.77
2023-05-04T02:51:16.743Z,4.88
2023-05-04T02:51:47.424Z,4.88
2023-05-04T02:52:17.415Z,5.00
2023-05-04T02:52:49.716Z,5.00
2023-05-04T02:53:19.508Z,5.11
2023-05-04T02:53:51.153Z,5.11
2023-05-04T02:54:21.463Z,5.11
2023-05-04T02:54:55.238Z,5.11
2023-05-04T02:55:24.010Z,5.11
2023-05-04T02:55:54.481Z,5.11
2023-05-04T02:56:28.056Z,5.11
2023-05-04T02:56:56.803Z,5.11
2023-05-04T02:57:27.469Z,5.00
2023-05-04T02:58:00.173Z,5.00
2023-05-04T02:58:29.490Z,5.00
2023-05-04T02:59:02.275Z,5.00
2023-05-04T02:59:31.661Z,4.88
2023-05-04T03:00:04.987Z,4.88
2023-05-04T03:00:34.389Z,4.88
2023-05-04T03:01:05.371Z,4.88
2023-05-04T03:01:36.619Z,4.88
2023-05-04T03:02:07.498Z,4.88
2023-05-04T03:02:37.635Z,4.88
2023-05-04T03:03:09.407Z,4.88
2023-05-04T03:03:39.784Z,4.88
2023-05-04T03:04:11.261Z,4.88
2023-05-04T03:04:41.750Z,4.88
2023-05-04T03:05:13.778Z,4.88
2023-05-04T03:05:43.489Z,4.88
2023-05-04T03:06:15.601Z,4.88
2023-05-04T03:06:46.685Z,4.88
2023-05-04T03:07:17.195Z,5.00
2023-05-04T03:07:47.510Z,5.00
2023-05-04T03:08:19.305Z,5.00
2023-05-04T03:08:49.510Z,5.11
2023-05-04T03:09:21.261Z,5.11
2023-05-04T03:09:51.742Z,5.22
2023-05-04T03:10:23.923Z,5.22
2023-05-04T03:10:53.463Z,5.22
2023-05-04T03:11:25.252Z,5.22
2023-05-04T03:11:56.512Z,5.27
2023-05-04T03:12:27.803Z,5.27
2023-05-04T03:12:57.731Z,5.38
2023-05-04T03:13:29.177Z,5.38
2023-05-04T03:13:59.438Z,5.50
2023-05-04T03:14:31.151Z,5.50
2023-05-04T03:15:02.630Z,5.61
2023-05-04T03:15:33.890Z,5.61
2023-05-04T03:16:03.712Z,5.61
2023-05-04T03:16:35.214Z,5.61
2023-05-04T03:17:06.587Z,5.61
2023-05-04T03:17:37.666Z,5.61
2023-05-04T03:18:07.565Z,5.61
2023-05-04T03:18:39.580Z,5.61
2023-05-04T03:19:09.540Z,5.50
2023-05-04T03:19:41.680Z,5.50
2023-05-04T03:20:12.085Z,5.50
2023-05-04T03:20:46.292Z,5.50
2023-05-04T03:21:13.532Z,5.50
2023-05-04T03:21:45.220Z,5.50
2023-05-04T03:22:16.485Z,5.50
2023-05-04T03:22:47.528Z,5.38
2023-05-04T03:23:17.456Z,5.38
2023-05-04T03:23:50.292Z,5.38
2023-05-04T03:24:19.465Z,5.38
2023-05-04T03:24:51.219Z,5.38
2023-05-04T03:25:22.040Z,5.27
2023-05-04T03:25:53.270Z,5.27
2023-05-04T03:26:23.538Z,5.27
2023-05-04T03:26:56.145Z,5.22
2023-05-04T03:27:26.504Z,5.22
2023-05-04T03:27:57.209Z,5.22
2023-05-04T03:28:27.449Z,5.22
2023-05-04T03:29:00.859Z,5.22
2023-05-04T03:29:29.496Z,5.22
2023-05-04T03:30:03.046Z,5.22
2023-05-04T03:30:31.908Z,5.22
2023-05-04T03:31:03.218Z,5.22
2023-05-04T03:31:33.774Z,5.22
2023-05-04T03:32:05.266Z,5.22
2023-05-04T03:32:36.542Z,5.22
2023-05-04T03:33:07.904Z,5.22
2023-05-04T03:33:37.442Z,5.22
2023-05-04T03:34:09.155Z,5.22
2023-05-04T03:34:39.579Z,5.22
2023-05-04T03:35:11.700Z,5.22
2023-05-04T03:35:41.699Z,5.22
2023-05-04T03:36:13.134Z,5.22
2023-05-04T03:36:43.457Z,5.11
2023-05-04T03:37:15.159Z,5.11
2023-05-04T03:37:46.502Z,5.11
2023-05-04T03:38:17.329Z,5.11
2023-05-04T03:38:47.595Z,5.11
2023-05-04T03:39:19.512Z,5.11
2023-05-04T03:39:49.589Z,5.11
2023-05-04T03:40:21.893Z,5.11
2023-05-04T03:40:51.654Z,5.22
2023-05-04T03:41:23.301Z,5.22
2023-05-04T03:41:53.570Z,5.22
2023-05-04T03:42:25.281Z,5.27
2023-05-04T03:42:56.622Z,5.27
2023-05-04T03:43:27.784Z,5.27
2023-05-04T03:43:58.053Z,5.27
2023-05-04T03:44:29.407Z,5.38
2023-05-04T03:45:00.734Z,5.50
2023-05-04T03:45:32.175Z,5.61
2023-05-04T03:46:01.775Z,5.61
2023-05-04T03:46:34.014Z,5.72
2023-05-04T03:47:03.706Z,5.72
2023-05-04T03:47:36.504Z,5.77
2023-05-04T03:48:06.690Z,5.88
2023-05-04T03:48:37.392Z,5.88
2023-05-04T03:49:07.584Z,6.00
2023-05-04T03:49:39.298Z,6.00
2023-05-04T03:50:10.086Z,6.00
2023-05-04T03:50:41.315Z,6.00
2023-05-04T03:51:11.633Z,6.00
2023-05-04T03:51:43.617Z,6.00
2023-05-04T03:52:13.622Z,5.88
2023-05-04T03:52:45.325Z,5.88
2023-05-04T03:53:17.050Z,5.77
2023-05-04T03:53:47.600Z,5.72
2023-05-04T03:54:17.582Z,5.72
2023-05-04T03:54:49.295Z,5.61
2023-05-04T03:55:20.119Z,5.50
2023-05-04T03:55:51.316Z,5.50
2023-05-04T03:56:21.610Z,5.38
2023-05-04T03:56:53.284Z,5.38
2023-05-04T03:57:24.135Z,5.27
2023-05-04T03:57:55.323Z,5.22
2023-05-04T03:58:26.635Z,5.22
2023-05-04T03:58:57.317Z,5.11
2023-05-04T03:59:28.065Z,5.11
2023-05-04T03:59:59.541Z,5.00
2023-05-04T04:00:31.214Z,5.00
2023-05-04T04:01:02.340Z,5.00
2023-05-04T04:01:31.628Z,5.00
2023-05-04T04:02:03.490Z,5.00
2023-05-04T04:02:34.034Z,5.00
2023-05-04T04:03:05.433Z,5.00
2023-05-04T04:03:36.693Z,5.00
2023-05-04T04:04:07.642Z,4.88
2023-05-04T04:04:37.790Z,4.88
2023-05-04T04:05:09.744Z,4.88
2023-05-04T04:05:39.656Z,4.88
2023-05-04T04:06:12.510Z,5.00
2023-05-04T04:06:43.308Z,5.00
2023-05-04T04:07:13.280Z,5.00
2023-05-04T04:07:43.589Z,5.00
2023-05-04T04:08:15.287Z,4.88
2023-05-04T04:08:46.632Z,4.88
2023-05-04T04:09:17.302Z,4.88
2023-05-04T04:09:47.640Z,4.77
2023-05-04T04:10:19.813Z,4.77
2023-05-04T04:10:50.339Z,4.77
2023-05-04T04:11:21.309Z,4.77
2023-05-04T04:11:51.621Z,4.77
2023-05-04T04:12:23.319Z,4.72
2023-05-04T04:12:53.695Z,4.72
2023-05-04T04:13:25.580Z,4.72
2023-05-04T04:13:56.685Z,4.61
2023-05-04T04:14:27.639Z,4.61
2023-05-04T04:14:57.699Z,4.61
2023-05-04T04:15:30.333Z,4.61
2023-05-04T04:15:59.660Z,4.61
2023-05-04T04:16:31.313Z,4.61
2023-05-04T04:17:01.696Z,4.72
2023-05-04T04:17:33.334Z,4.77
2023-05-04T04:18:03.825Z,4.77
2023-05-04T04:18:35.319Z,4.77
2023-05-04T04:19:06.592Z,4.77
2023-05-04T04:19:38.171Z,4.88
2023-05-04T04:20:08.715Z,5.00
2023-05-04T04:20:39.642Z,5.00
2023-05-04T04:21:10.042Z,5.11
2023-05-04T04:21:43.305Z,5.11
2023-05-04T04:22:11.588Z,5.11
2023-05-04T04:22:42.559Z,5.11
2023-05-04T04:23:14.622Z,5.11
2023-05-04T04:23:44.583Z,5.11
2023-05-04T04:24:17.280Z,5.11
2023-05-04T04:24:46.957Z,5.11
2023-05-04T04:25:20.385Z,5.11
2023-05-04T04:25:48.725Z,5.11
2023-05-04T04:26:20.455Z,5.11
2023-05-04T04:26:50.612Z,5.11
2023-05-04T04:27:22.324Z,5.22
2023-05-04T04:27:52.582Z,5.22
2023-05-04T04:28:24.283Z,5.27
2023-05-04T04:28:54.564Z,5.27
2023-05-04T04:29:27.698Z,5.27
2023-05-04T04:29:56.714Z,5.27
2023-05-04T04:30:30.128Z,5.22
2023-05-04T04:30:59.276Z,5.22
2023-05-04T04:31:30.370Z,5.22
2023-05-04T04:32:00.839Z,5.22
2023-05-04T04:32:31.611Z,5.11
2023-05-04T04:33:03.416Z,5.11
2023-05-04T04:33:33.827Z,5.22
2023-05-04T04:34:06.445Z,5.22
2023-05-04T04:34:36.579Z,5.27
2023-05-04T04:35:08.234Z,5.27
2023-05-04T04:35:38.078Z,5.27
2023-05-04T04:36:09.418Z,5.27
2023-05-04T04:36:39.612Z,5.27
2023-05-04T04:37:11.374Z,5.27
2023-05-04T04:37:42.080Z,5.27
2023-05-04T04:38:13.295Z,5.38
2023-05-04T04:38:43.526Z,5.38
2023-05-04T04:39:15.338Z,5.50
2023-05-04T04:39:46.540Z,5.50
2023-05-04T04:40:18.693Z,5.50
2023-05-04T04:40:47.633Z,5.50
2023-05-04T04:41:19.309Z,5.61
2023-05-04T04:41:49.580Z,5.61
2023-05-04T04:42:21.454Z,5.72
2023-05-04T04:42:51.881Z,5.72
2023-05-04T04:43:23.261Z,5.72
2023-05-04T04:43:53.621Z,5.72
2023-05-04T04:44:25.311Z,5.77
2023-05-04T04:44:56.579Z,5.77
2023-05-04T04:45:28.567Z,5.88
2023-05-04T04:45:57.784Z,5.88
2023-05-04T04:46:29.346Z,5.88
2023-05-04T04:46:59.758Z,5.88
2023-05-04T04:47:31.332Z,5.88
2023-05-04T04:48:01.625Z,5.88
2023-05-04T04:48:34.524Z,5.88
2023-05-04T04:49:03.831Z,5.88
2023-05-04T04:49:36.720Z,5.88
2023-05-04T04:50:07.316Z,5.88
2023-05-04T04:50:37.418Z,5.88
2023-05-04T04:51:08.015Z,6.00
2023-05-04T04:51:39.852Z,6.00
2023-05-04T04:52:09.721Z,6.11
2023-05-04T04:52:41.392Z,6.11
2023-05-04T04:53:11.594Z,6.22
2023-05-04T04:53:43.732Z,6.22
2023-05-04T04:54:13.607Z,6.22
2023-05-04T04:54:45.378Z,6.22
2023-05-04T04:55:17.082Z,6.22
2023-05-04T04:55:47.602Z,6.22
2023-05-04T04:56:17.619Z,6.22
2023-05-04T04:56:49.375Z,6.11
2023-05-04T04:57:19.579Z,6.11
2023-05-04T04:57:52.281Z,6.00
2023-05-04T04:58:21.589Z,5.88
2023-05-04T04:58:53.256Z,5.77
2023-05-04T04:59:23.586Z,5.77
2023-05-04T04:59:55.306Z,5.72
2023-05-04T05:00:28.437Z,5.61
2023-05-04T05:01:00.658Z,5.61
2023-05-04T05:01:27.667Z,5.50
2023-05-04T05:01:58.704Z,5.50
2023-05-04T05:02:30.552Z,5.50
2023-05-04T05:03:00.759Z,5.38
2023-05-04T05:03:32.312Z,5.38
2023-05-04T05:04:02.919Z,5.27
2023-05-04T05:04:34.491Z,5.27
2023-05-04T05:05:05.503Z,5.27
2023-05-04T05:05:37.365Z,5.27
2023-05-04T05:06:07.018Z,5.27
2023-05-04T05:06:39.427Z,5.27
2023-05-04T05:07:09.640Z,5.27
2023-05-04T05:07:40.370Z,5.27
2023-05-04T05:08:10.596Z,5.27
2023-05-04T05:08:42.405Z,5.27
2023-05-04T05:09:12.674Z,5.27
2023-05-04T05:09:44.303Z,5.27
2023-05-04T05:10:15.196Z,5.27
2023-05-04T05:10:47.479Z,5.27
2023-05-04T05:11:17.100Z,5.27
2023-05-04T05:11:48.395Z,5.27
2023-05-04T05:12:18.703Z,5.27
2023-05-04T05:12:50.504Z,5.27
2023-05-04T05:13:20.736Z,5.27
2023-05-04T05:13:52.958Z,5.27
2023-05-04T05:14:22.769Z,5.27
2023-05-04T05:14:55.277Z,5.27
2023-05-04T05:15:25.587Z,5.27
2023-05-04T05:15:57.464Z,5.27
2023-05-04T05:16:27.117Z,5.27
2023-05-04T05:16:58.534Z,5.27
2023-05-04T05:17:28.659Z,5.27
2023-05-04T05:18:02.443Z,5.27
2023-05-04T05:18:30.702Z,5.38
2023-05-04T05:19:01.701Z,5.50
2023-05-04T05:19:33.363Z,5.61
2023-05-04T05:20:04.655Z,5.72
2023-05-04T05:20:37.959Z,5.77
2023-05-04T05:21:06.648Z,5.88
2023-05-04T05:21:37.675Z,6.00
2023-05-04T05:22:07.622Z,6.00
2023-05-04T05:22:39.515Z,6.27
2023-05-04T05:23:09.649Z,6.27
2023-05-04T05:23:41.368Z,6.27
2023-05-04T05:24:11.624Z,6.27
2023-05-04T05:24:43.599Z,6.27
2023-05-04T05:25:14.231Z,6.38
2023-05-04T05:25:46.431Z,6.38
2023-05-04T05:26:16.765Z,6.77
2023-05-04T05:26:47.638Z,6.88
2023-05-04T05:27:17.701Z,6.88
2023-05-04T05:27:50.356Z,7.00
2023-05-04T05:28:19.627Z,7.11
2023-05-04T05:28:51.521Z,7.38
2023-05-04T05:29:21.643Z,7.50
2023-05-04T05:29:53.469Z,7.50
2023-05-04T05:30:24.570Z,7.50
2023-05-04T05:30:55.601Z,7.50
2023-05-04T05:31:26.730Z,7.61
2023-05-04T05:31:56.687Z,7.61
2023-05-04T05:32:27.758Z,7.61
2023-05-04T05:32:59.409Z,7.50
2023-05-04T05:33:29.597Z,7.50
2023-05-04T05:34:01.958Z,7.50
2023-05-04T05:34:32.159Z,7.50
2023-05-04T05:35:04.141Z,7.50
2023-05-04T05:35:33.850Z,7.50
2023-05-04T05:36:05.301Z,7.50
2023-05-04T05:36:36.628Z,7.50
2023-05-04T05:37:07.785Z,7.50
2023-05-04T05:37:37.780Z,7.50
2023-05-04T05:38:09.623Z,7.38
2023-05-04T05:38:39.941Z,7.38
2023-05-04T05:39:11.511Z,7.38
2023-05-04T05:39:41.764Z,7.38
2023-05-04T05:40:14.042Z,7.38
2023-05-04T05:40:43.994Z,7.38
2023-05-04T05:41:15.434Z,7.61
2023-05-04T05:41:46.701Z,7.72
2023-05-04T05:42:17.442Z,7.72
2023-05-04T05:42:47.720Z,7.72
2023-05-04T05:43:19.267Z,7.72
2023-05-04T05:43:49.732Z,7.72
2023-05-04T05:44:21.381Z,7.72
2023-05-04T05:44:52.141Z,7.77
2023-05-04T05:45:24.519Z,7.88
2023-05-04T05:45:53.839Z,8.22
2023-05-04T05:46:25.508Z,8.22
2023-05-04T05:46:57.127Z,8.38
2023-05-04T05:47:28.371Z,8.72
2023-05-04T05:47:57.987Z,8.88
2023-05-04T05:48:29.466Z,9.00
2023-05-04T05:48:59.724Z,9.00
2023-05-04T05:49:31.433Z,9.00
2023-05-04T05:50:02.872Z,8.88
2023-05-04T05:50:33.430Z,8.88
2023-05-04T05:51:03.937Z,8.72
2023-05-04T05:51:35.743Z,8.50
2023-05-04T05:52:06.811Z,8.50
2023-05-04T05:52:37.458Z,8.50
2023-05-04T05:53:07.700Z,8.50
2023-05-04T05:53:39.537Z,8.50
2023-05-04T05:54:09.737Z,8.50
2023-05-04T05:54:41.678Z,8.50
2023-05-04T05:55:12.182Z,8.50
2023-05-04T05:55:43.498Z,8.61
2023-05-04T05:56:13.751Z,8.77
2023-05-04T05:56:45.400Z,8.88
2023-05-04T05:57:16.685Z,9.00
2023-05-04T05:57:47.660Z,9.11
2023-05-04T05:58:18.284Z,9.22
2023-05-04T05:58:49.362Z,9.50
2023-05-04T05:59:19.720Z,9.72
2023-05-04T05:59:52.324Z,9.88
2023-05-04T06:00:23.855Z,10.00
2023-05-04T06:00:54.774Z,10.00
2023-05-04T06:01:24.222Z,10.00
2023-05-04T06:01:55.451Z,9.88
2023-05-04T06:02:26.842Z,9.88
2023-05-04T06:02:57.511Z,9.88
2023-05-04T06:03:27.935Z,9.88
2023-05-04T06:04:00.106Z,9.88
2023-05-04T06:04:29.715Z,9.77
2023-05-04T06:05:03.089Z,9.61
2023-05-04T06:05:31.996Z,9.50
2023-05-04T06:06:03.486Z,9.50
2023-05-04T06:06:33.924Z,9.38
2023-05-04T06:07:05.416Z,9.38
2023-05-04T06:07:37.320Z,9.27
2023-05-04T06:08:07.691Z,9.27
2023-05-04T06:08:38.153Z,9.27
2023-05-04T06:09:09.428Z,9.27
2023-05-04T06:09:39.756Z,9.27
2023-05-04T06:10:11.986Z,9.27
2023-05-04T06:10:41.697Z,9.27
2023-05-04T06:11:13.462Z,9.27
2023-05-04T06:11:44.220Z,9.27
2023-05-04T06:12:15.368Z,9.22
2023-05-04T06:12:46.738Z,9.22
2023-05-04T06:13:17.416Z,9.22
2023-05-04T06:13:47.829Z,9.22
2023-05-04T06:14:20.013Z,9.22
2023-05-04T06:14:49.708Z,9.22
2023-05-04T06:15:22.569Z,9.27
2023-05-04T06:15:51.856Z,9.50
2023-05-04T06:16:23.550Z,9.50
2023-05-04T06:16:53.729Z,9.50
2023-05-04T06:17:26.408Z,9.50
2023-05-04T06:17:56.835Z,9.38
2023-05-04T06:18:28.069Z,9.38
2023-05-04T06:18:57.833Z,9.38
2023-05-04T06:19:31.510Z,9.38
2023-05-04T06:19:59.692Z,9.38
2023-05-04T06:20:38.625Z,9.27
2023-05-04T06:21:01.759Z,9.27
2023-05-04T06:21:33.454Z,9.27
2023-05-04T06:22:03.981Z,9.27
2023-05-04T06:22:36.862Z,9.27
2023-05-04T06:23:06.941Z,9.38
2023-05-04T06:23:36.744Z,9.38
2023-05-04T06:24:08.404Z,9.38
2023-05-04T06:24:38.740Z,9.50
2023-05-04T06:25:11.301Z,9.50
2023-05-04T06:25:40.756Z,9.61
2023-05-04T06:26:12.878Z,9.61
2023-05-04T06:26:42.778Z,9.61
2023-05-04T06:27:14.428Z,9.72
2023-05-04T06:27:44.714Z,9.72
2023-05-04T06:28:17.464Z,9.77
2023-05-04T06:28:47.048Z,9.88
2023-05-04T06:29:18.484Z,9.88
2023-05-04T06:29:48.723Z,9.88
2023-05-04T06:30:22.397Z,9.88
2023-05-04T06:30:50.856Z,9.88
2023-05-04T06:31:22.459Z,9.88
2023-05-04T06:31:53.434Z,10.00
2023-05-04T06:32:23.960Z,10.00
2023-05-04T06:32:55.517Z,10.11
2023-05-04T06:33:26.712Z,10.11
2023-05-04T06:33:57.373Z,10.11
2023-05-04T06:34:27.746Z,10.11
2023-05-04T06:34:59.906Z,10.11
2023-05-04T06:35:30.411Z,10.11
2023-05-04T06:36:01.672Z,10.11
2023-05-04T06:36:31.730Z,10.11
2023-05-04T06:37:03.641Z,10.11
2023-05-04T06:37:33.748Z,10.11
2023-05-04T06:38:05.452Z,10.11
2023-05-04T06:38:38.822Z,10.11
2023-05-04T06:39:07.736Z,10.00
2023-05-04T06:39:37.726Z,10.00
2023-05-04T06:40:10.196Z,10.00
2023-05-04T06:40:40.364Z,10.00
2023-05-04T06:41:12.083Z,10.11
2023-05-04T06:41:41.986Z,10.22
2023-05-04T06:42:13.479Z,10.22
2023-05-04T06:42:43.912Z,10.22
2023-05-04T06:43:15.404Z,10.22
2023-05-04T06:43:46.707Z,10.22
2023-05-04T06:44:17.455Z,10.22
2023-05-04T06:44:47.837Z,10.22
2023-05-04T06:45:21.064Z,10.22
2023-05-04T06:45:49.990Z,10.27
2023-05-04T06:46:21.582Z,10.38
2023-05-04T06:46:51.849Z,10.38
2023-05-04T06:47:23.535Z,10.50
2023-05-04T06:47:53.795Z,10.50
2023-05-04T06:48:25.401Z,10.50
2023-05-04T06:48:56.666Z,10.50
2023-05-04T06:49:27.945Z,10.19
2023-05-04T06:49:58.288Z,10.50
2023-05-04T06:50:29.994Z,10.50
2023-05-04T06:51:01.517Z,10.19
2023-05-04T06:51:31.401Z,10.50
2023-05-04T06:52:03.259Z,10.05